sensor_id;sensor_type;location;lat;lon;timestamp;P1;durP1;ratioP1;P2;durP2;ratioP2
72557;SDS011;60583;50.094;8.748;2023-08-17T00:00:08;5.43;;;2.65;;
72557;SDS011;60583;50.094;8.748;2023-08-17T00:02:40;5.55;;;2.50;;
72557;SDS011;60583;50.094;8.748;2023-08-17T00:05:06;5.57;;;2.60;;
72557;SDS011;60583;50.094;8.748;2023-08-17T00:07:32;5.00;;;2.35;;
72557;SDS011;60583;50.094;8.748;2023-08-17T00:09:58;5.53;;;2.88;;
72557;SDS011;60583;50.094;8.748;2023-08-17T00:12:24;6.35;;;1.95;;
72557;SDS011;60583;50.094;8.748;2023-08-17T00:14:50;5.72;;;2.17;;
72557;SDS011;60583;50.094;8.748;2023-08-17T00:17:17;6.32;;;2.63;;
72557;SDS011;60583;50.094;8.748;2023-08-17T00:19:42;5.25;;;2.88;;
72557;SDS011;60583;50.094;8.748;2023-08-17T00:22:07;6.82;;;2.75;;
72557;SDS011;60583;50.094;8.748;2023-08-17T00:24:33;7.57;;;3.08;;
72557;SDS011;60583;50.094;8.748;2023-08-17T00:26:58;5.78;;;2.25;;
72557;SDS011;60583;50.094;8.748;2023-08-17T00:29:24;6.25;;;2.83;;
72557;SDS011;60583;50.094;8.748;2023-08-17T00:31:49;5.25;;;2.47;;
72557;SDS011;60583;50.094;8.748;2023-08-17T00:34:14;4.22;;;2.10;;
72557;SDS011;60583;50.094;8.748;2023-08-17T00:36:40;6.40;;;2.70;;
72557;SDS011;60583;50.094;8.748;2023-08-17T00:39:05;4.95;;;2.35;;
72557;SDS011;60583;50.094;8.748;2023-08-17T00:41:31;5.10;;;2.60;;
72557;SDS011;60583;50.094;8.748;2023-08-17T00:43:56;6.20;;;2.40;;
72557;SDS011;60583;50.094;8.748;2023-08-17T00:46:22;4.50;;;2.15;;
72557;SDS011;60583;50.094;8.748;2023-08-17T00:48:48;4.65;;;2.10;;
72557;SDS011;60583;50.094;8.748;2023-08-17T00:51:14;4.20;;;2.17;;
72557;SDS011;60583;50.094;8.748;2023-08-17T00:53:40;5.22;;;2.55;;
72557;SDS011;60583;50.094;8.748;2023-08-17T00:56:06;6.75;;;2.72;;
72557;SDS011;60583;50.094;8.748;2023-08-17T00:58:33;6.05;;;2.92;;
72557;SDS011;60583;50.094;8.748;2023-08-17T01:00:59;4.63;;;2.30;;
72557;SDS011;60583;50.094;8.748;2023-08-17T01:03:24;4.88;;;2.20;;
72557;SDS011;60583;50.094;8.748;2023-08-17T01:05:54;5.95;;;2.67;;
72557;SDS011;60583;50.094;8.748;2023-08-17T01:08:19;6.55;;;2.67;;
72557;SDS011;60583;50.094;8.748;2023-08-17T01:10:59;4.82;;;2.80;;
72557;SDS011;60583;50.094;8.748;2023-08-17T01:13:34;4.95;;;2.20;;
72557;SDS011;60583;50.094;8.748;2023-08-17T01:16:09;7.35;;;2.72;;
72557;SDS011;60583;50.094;8.748;2023-08-17T01:18:39;5.57;;;3.17;;
72557;SDS011;60583;50.094;8.748;2023-08-17T01:21:06;7.78;;;2.85;;
72557;SDS011;60583;50.094;8.748;2023-08-17T01:23:35;6.25;;;2.60;;
72557;SDS011;60583;50.094;8.748;2023-08-17T01:26:00;6.00;;;2.67;;
72557;SDS011;60583;50.094;8.748;2023-08-17T01:28:25;4.90;;;2.55;;
72557;SDS011;60583;50.094;8.748;2023-08-17T01:31:03;6.97;;;3.17;;
72557;SDS011;60583;50.094;8.748;2023-08-17T01:33:37;5.28;;;2.72;;
72557;SDS011;60583;50.094;8.748;2023-08-17T01:38:44;6.90;;;2.90;;
72557;SDS011;60583;50.094;8.748;2023-08-17T01:41:11;4.75;;;2.72;;
72557;SDS011;60583;50.094;8.748;2023-08-17T01:43:44;5.15;;;2.45;;
72557;SDS011;60583;50.094;8.748;2023-08-17T01:46:14;8.00;;;3.05;;
72557;SDS011;60583;50.094;8.748;2023-08-17T01:48:40;5.80;;;2.90;;
72557;SDS011;60583;50.094;8.748;2023-08-17T01:51:06;7.65;;;2.75;;
72557;SDS011;60583;50.094;8.748;2023-08-17T01:53:32;6.28;;;2.70;;
72557;SDS011;60583;50.094;8.748;2023-08-17T01:55:57;5.45;;;2.83;;
72557;SDS011;60583;50.094;8.748;2023-08-17T01:58:23;7.95;;;3.17;;
72557;SDS011;60583;50.094;8.748;2023-08-17T02:00:48;6.53;;;3.05;;
72557;SDS011;60583;50.094;8.748;2023-08-17T02:03:14;6.75;;;3.35;;
72557;SDS011;60583;50.094;8.748;2023-08-17T02:05:43;5.47;;;3.13;;
72557;SDS011;60583;50.094;8.748;2023-08-17T02:08:09;8.50;;;3.45;;
72557;SDS011;60583;50.094;8.748;2023-08-17T02:10:35;6.20;;;3.67;;
72557;SDS011;60583;50.094;8.748;2023-08-17T02:13:00;8.60;;;3.78;;
72557;SDS011;60583;50.094;8.748;2023-08-17T02:15:25;6.57;;;3.40;;
72557;SDS011;60583;50.094;8.748;2023-08-17T02:17:51;6.70;;;3.72;;
72557;SDS011;60583;50.094;8.748;2023-08-17T02:20:16;7.13;;;3.38;;
72557;SDS011;60583;50.094;8.748;2023-08-17T02:22:41;9.45;;;3.88;;
72557;SDS011;60583;50.094;8.748;2023-08-17T02:25:07;7.18;;;3.22;;
72557;SDS011;60583;50.094;8.748;2023-08-17T02:27:33;7.40;;;3.40;;
72557;SDS011;60583;50.094;8.748;2023-08-17T02:29:59;9.13;;;4.13;;
72557;SDS011;60583;50.094;8.748;2023-08-17T02:32:24;7.63;;;3.65;;
72557;SDS011;60583;50.094;8.748;2023-08-17T02:34:49;6.82;;;3.63;;
72557;SDS011;60583;50.094;8.748;2023-08-17T02:37:15;8.48;;;4.00;;
72557;SDS011;60583;50.094;8.748;2023-08-17T02:39:40;6.60;;;3.42;;
72557;SDS011;60583;50.094;8.748;2023-08-17T02:42:05;7.85;;;4.40;;
72557;SDS011;60583;50.094;8.748;2023-08-17T02:44:31;7.60;;;4.10;;
72557;SDS011;60583;50.094;8.748;2023-08-17T02:46:56;8.88;;;4.00;;
72557;SDS011;60583;50.094;8.748;2023-08-17T02:49:22;7.03;;;3.92;;
72557;SDS011;60583;50.094;8.748;2023-08-17T02:51:47;7.93;;;4.07;;
72557;SDS011;60583;50.094;8.748;2023-08-17T02:54:12;7.88;;;3.75;;
72557;SDS011;60583;50.094;8.748;2023-08-17T02:56:38;8.15;;;4.10;;
72557;SDS011;60583;50.094;8.748;2023-08-17T02:59:03;8.52;;;4.70;;
72557;SDS011;60583;50.094;8.748;2023-08-17T03:01:29;8.68;;;4.75;;
72557;SDS011;60583;50.094;8.748;2023-08-17T03:03:55;9.02;;;4.57;;
72557;SDS011;60583;50.094;8.748;2023-08-17T03:06:20;6.80;;;4.07;;
72557;SDS011;60583;50.094;8.748;2023-08-17T03:08:45;10.93;;;4.45;;
72557;SDS011;60583;50.094;8.748;2023-08-17T03:11:11;11.95;;;6.53;;
72557;SDS011;60583;50.094;8.748;2023-08-17T03:13:37;13.27;;;7.53;;
72557;SDS011;60583;50.094;8.748;2023-08-17T03:16:02;12.73;;;6.75;;
72557;SDS011;60583;50.094;8.748;2023-08-17T03:18:27;9.27;;;6.00;;
72557;SDS011;60583;50.094;8.748;2023-08-17T03:20:53;12.88;;;6.88;;
72557;SDS011;60583;50.094;8.748;2023-08-17T03:23:18;9.40;;;4.88;;
72557;SDS011;60583;50.094;8.748;2023-08-17T03:25:43;8.98;;;4.68;;
72557;SDS011;60583;50.094;8.748;2023-08-17T03:28:11;14.27;;;5.30;;
72557;SDS011;60583;50.094;8.748;2023-08-17T03:30:36;10.15;;;6.47;;
72557;SDS011;60583;50.094;8.748;2023-08-17T03:33:02;10.50;;;6.05;;
72557;SDS011;60583;50.094;8.748;2023-08-17T03:35:27;7.85;;;5.35;;
72557;SDS011;60583;50.094;8.748;2023-08-17T03:37:53;8.88;;;4.78;;
72557;SDS011;60583;50.094;8.748;2023-08-17T03:40:18;8.45;;;5.03;;
72557;SDS011;60583;50.094;8.748;2023-08-17T03:42:44;8.05;;;5.35;;
72557;SDS011;60583;50.094;8.748;2023-08-17T03:45:09;10.13;;;5.60;;
72557;SDS011;60583;50.094;8.748;2023-08-17T03:47:34;8.82;;;5.47;;
72557;SDS011;60583;50.094;8.748;2023-08-17T03:50:00;8.35;;;4.88;;
72557;SDS011;60583;50.094;8.748;2023-08-17T03:52:25;8.98;;;5.22;;
72557;SDS011;60583;50.094;8.748;2023-08-17T03:54:50;8.73;;;5.13;;
72557;SDS011;60583;50.094;8.748;2023-08-17T03:57:16;8.45;;;4.50;;
72557;SDS011;60583;50.094;8.748;2023-08-17T03:59:41;8.68;;;4.43;;
72557;SDS011;60583;50.094;8.748;2023-08-17T04:02:07;9.40;;;4.93;;
72557;SDS011;60583;50.094;8.748;2023-08-17T04:04:32;7.97;;;5.15;;
72557;SDS011;60583;50.094;8.748;2023-08-17T04:06:57;7.78;;;4.68;;
72557;SDS011;60583;50.094;8.748;2023-08-17T04:09:23;9.68;;;5.38;;
72557;SDS011;60583;50.094;8.748;2023-08-17T04:11:48;9.73;;;5.20;;
72557;SDS011;60583;50.094;8.748;2023-08-17T04:14:14;9.07;;;5.00;;
72557;SDS011;60583;50.094;8.748;2023-08-17T04:16:39;9.93;;;4.47;;
72557;SDS011;60583;50.094;8.748;2023-08-17T04:19:05;6.70;;;4.55;;
72557;SDS011;60583;50.094;8.748;2023-08-17T04:21:30;8.98;;;5.10;;
72557;SDS011;60583;50.094;8.748;2023-08-17T04:23:56;10.07;;;5.25;;
72557;SDS011;60583;50.094;8.748;2023-08-17T04:26:21;8.68;;;5.43;;
72557;SDS011;60583;50.094;8.748;2023-08-17T04:28:46;8.35;;;4.93;;
72557;SDS011;60583;50.094;8.748;2023-08-17T04:31:12;9.55;;;5.75;;
72557;SDS011;60583;50.094;8.748;2023-08-17T04:33:38;8.55;;;4.50;;
72557;SDS011;60583;50.094;8.748;2023-08-17T04:36:04;9.68;;;4.40;;
72557;SDS011;60583;50.094;8.748;2023-08-17T04:38:30;6.88;;;4.35;;
72557;SDS011;60583;50.094;8.748;2023-08-17T04:40:55;7.97;;;4.28;;
72557;SDS011;60583;50.094;8.748;2023-08-17T04:43:21;9.43;;;4.50;;
72557;SDS011;60583;50.094;8.748;2023-08-17T04:45:52;10.02;;;5.03;;
72557;SDS011;60583;50.094;8.748;2023-08-17T04:48:21;8.70;;;4.43;;
72557;SDS011;60583;50.094;8.748;2023-08-17T04:50:46;9.68;;;4.95;;
72557;SDS011;60583;50.094;8.748;2023-08-17T04:53:12;8.50;;;4.60;;
72557;SDS011;60583;50.094;8.748;2023-08-17T04:55:37;8.18;;;4.93;;
72557;SDS011;60583;50.094;8.748;2023-08-17T04:58:03;9.43;;;5.05;;
72557;SDS011;60583;50.094;8.748;2023-08-17T05:00:28;7.68;;;4.53;;
72557;SDS011;60583;50.094;8.748;2023-08-17T05:02:54;9.63;;;4.82;;
72557;SDS011;60583;50.094;8.748;2023-08-17T05:05:23;8.23;;;4.40;;
72557;SDS011;60583;50.094;8.748;2023-08-17T05:07:48;8.30;;;4.25;;
72557;SDS011;60583;50.094;8.748;2023-08-17T05:10:14;10.43;;;4.88;;
72557;SDS011;60583;50.094;8.748;2023-08-17T05:12:39;8.85;;;4.43;;
72557;SDS011;60583;50.094;8.748;2023-08-17T05:15:05;8.32;;;4.40;;
72557;SDS011;60583;50.094;8.748;2023-08-17T05:17:31;7.85;;;3.95;;
72557;SDS011;60583;50.094;8.748;2023-08-17T05:19:56;7.75;;;4.38;;
72557;SDS011;60583;50.094;8.748;2023-08-17T05:22:22;9.48;;;4.50;;
72557;SDS011;60583;50.094;8.748;2023-08-17T05:24:47;10.05;;;4.40;;
72557;SDS011;60583;50.094;8.748;2023-08-17T05:27:12;8.73;;;4.18;;
72557;SDS011;60583;50.094;8.748;2023-08-17T05:29:38;8.70;;;4.35;;
72557;SDS011;60583;50.094;8.748;2023-08-17T05:32:04;9.82;;;5.07;;
72557;SDS011;60583;50.094;8.748;2023-08-17T05:34:29;9.75;;;4.60;;
72557;SDS011;60583;50.094;8.748;2023-08-17T05:36:55;8.85;;;4.65;;
72557;SDS011;60583;50.094;8.748;2023-08-17T05:39:20;10.48;;;5.95;;
72557;SDS011;60583;50.094;8.748;2023-08-17T05:41:45;11.32;;;5.78;;
72557;SDS011;60583;50.094;8.748;2023-08-17T05:44:11;10.80;;;6.20;;
72557;SDS011;60583;50.094;8.748;2023-08-17T05:46:36;11.35;;;6.20;;
72557;SDS011;60583;50.094;8.748;2023-08-17T05:49:02;11.88;;;5.97;;
72557;SDS011;60583;50.094;8.748;2023-08-17T05:51:27;11.63;;;6.47;;
72557;SDS011;60583;50.094;8.748;2023-08-17T05:53:53;11.73;;;5.80;;
72557;SDS011;60583;50.094;8.748;2023-08-17T05:56:19;14.80;;;7.13;;
72557;SDS011;60583;50.094;8.748;2023-08-17T05:58:44;13.57;;;5.97;;
72557;SDS011;60583;50.094;8.748;2023-08-17T06:01:10;13.45;;;6.65;;
72557;SDS011;60583;50.094;8.748;2023-08-17T06:03:36;10.90;;;6.13;;
72557;SDS011;60583;50.094;8.748;2023-08-17T06:06:05;27.38;;;18.13;;
72557;SDS011;60583;50.094;8.748;2023-08-17T06:08:30;59.45;;;41.92;;
72557;SDS011;60583;50.094;8.748;2023-08-17T06:10:56;34.58;;;23.02;;
72557;SDS011;60583;50.094;8.748;2023-08-17T06:13:21;12.73;;;6.35;;
72557;SDS011;60583;50.094;8.748;2023-08-17T06:15:47;14.57;;;6.70;;
72557;SDS011;60583;50.094;8.748;2023-08-17T06:18:12;11.23;;;6.10;;
72557;SDS011;60583;50.094;8.748;2023-08-17T06:20:38;11.68;;;6.88;;
72557;SDS011;60583;50.094;8.748;2023-08-17T06:23:03;9.65;;;5.80;;
72557;SDS011;60583;50.094;8.748;2023-08-17T06:25:29;9.60;;;5.80;;
72557;SDS011;60583;50.094;8.748;2023-08-17T06:27:54;9.88;;;5.53;;
72557;SDS011;60583;50.094;8.748;2023-08-17T06:30:20;9.43;;;4.88;;
72557;SDS011;60583;50.094;8.748;2023-08-17T06:32:46;7.90;;;4.60;;
72557;SDS011;60583;50.094;8.748;2023-08-17T06:35:11;9.38;;;5.10;;
72557;SDS011;60583;50.094;8.748;2023-08-17T06:37:36;8.13;;;4.63;;
72557;SDS011;60583;50.094;8.748;2023-08-17T06:40:03;9.82;;;5.00;;
72557;SDS011;60583;50.094;8.748;2023-08-17T06:42:30;8.20;;;4.85;;
72557;SDS011;60583;50.094;8.748;2023-08-17T06:44:55;6.63;;;3.78;;
72557;SDS011;60583;50.094;8.748;2023-08-17T06:47:21;8.45;;;4.22;;
72557;SDS011;60583;50.094;8.748;2023-08-17T06:49:46;6.32;;;3.78;;
72557;SDS011;60583;50.094;8.748;2023-08-17T06:52:12;7.72;;;3.65;;
72557;SDS011;60583;50.094;8.748;2023-08-17T06:54:38;6.03;;;3.33;;
72557;SDS011;60583;50.094;8.748;2023-08-17T06:57:03;7.65;;;4.53;;
72557;SDS011;60583;50.094;8.748;2023-08-17T06:59:29;8.50;;;4.43;;
72557;SDS011;60583;50.094;8.748;2023-08-17T07:01:54;9.77;;;5.13;;
72557;SDS011;60583;50.094;8.748;2023-08-17T07:04:20;9.45;;;5.13;;
72557;SDS011;60583;50.094;8.748;2023-08-17T07:06:45;9.05;;;4.72;;
72557;SDS011;60583;50.094;8.748;2023-08-17T07:09:10;9.30;;;5.20;;
72557;SDS011;60583;50.094;8.748;2023-08-17T07:11:37;8.77;;;4.55;;
72557;SDS011;60583;50.094;8.748;2023-08-17T07:14:03;7.50;;;4.07;;
72557;SDS011;60583;50.094;8.748;2023-08-17T07:16:28;9.48;;;6.03;;
72557;SDS011;60583;50.094;8.748;2023-08-17T07:18:54;11.85;;;6.43;;
72557;SDS011;60583;50.094;8.748;2023-08-17T07:21:19;9.27;;;5.80;;
72557;SDS011;60583;50.094;8.748;2023-08-17T07:23:45;8.18;;;4.85;;
72557;SDS011;60583;50.094;8.748;2023-08-17T07:26:11;8.88;;;5.45;;
72557;SDS011;60583;50.094;8.748;2023-08-17T07:28:36;7.95;;;4.55;;
72557;SDS011;60583;50.094;8.748;2023-08-17T07:31:02;8.45;;;4.15;;
72557;SDS011;60583;50.094;8.748;2023-08-17T07:33:27;9.27;;;5.47;;
72557;SDS011;60583;50.094;8.748;2023-08-17T07:35:53;9.93;;;5.30;;
72557;SDS011;60583;50.094;8.748;2023-08-17T07:38:20;7.55;;;4.60;;
72557;SDS011;60583;50.094;8.748;2023-08-17T07:40:46;7.30;;;5.03;;
72557;SDS011;60583;50.094;8.748;2023-08-17T07:43:11;7.32;;;4.20;;
72557;SDS011;60583;50.094;8.748;2023-08-17T07:45:37;6.93;;;4.13;;
72557;SDS011;60583;50.094;8.748;2023-08-17T07:48:02;7.28;;;4.35;;
72557;SDS011;60583;50.094;8.748;2023-08-17T07:50:27;6.78;;;4.20;;
72557;SDS011;60583;50.094;8.748;2023-08-17T07:52:53;8.48;;;5.05;;
72557;SDS011;60583;50.094;8.748;2023-08-17T07:55:18;8.32;;;4.18;;
72557;SDS011;60583;50.094;8.748;2023-08-17T07:57:44;6.47;;;3.65;;
72557;SDS011;60583;50.094;8.748;2023-08-17T08:00:09;6.10;;;4.10;;
72557;SDS011;60583;50.094;8.748;2023-08-17T08:02:35;6.88;;;3.95;;
72557;SDS011;60583;50.094;8.748;2023-08-17T08:05:00;6.38;;;3.92;;
72557;SDS011;60583;50.094;8.748;2023-08-17T08:07:25;5.57;;;3.65;;
72557;SDS011;60583;50.094;8.748;2023-08-17T08:09:51;8.05;;;4.53;;
72557;SDS011;60583;50.094;8.748;2023-08-17T08:12:16;6.88;;;4.38;;
72557;SDS011;60583;50.094;8.748;2023-08-17T08:14:42;6.50;;;4.35;;
72557;SDS011;60583;50.094;8.748;2023-08-17T08:17:07;6.82;;;3.80;;
72557;SDS011;60583;50.094;8.748;2023-08-17T08:19:32;6.45;;;4.13;;
72557;SDS011;60583;50.094;8.748;2023-08-17T08:21:58;7.22;;;4.45;;
72557;SDS011;60583;50.094;8.748;2023-08-17T08:24:23;8.48;;;3.72;;
72557;SDS011;60583;50.094;8.748;2023-08-17T08:26:49;7.45;;;4.22;;
72557;SDS011;60583;50.094;8.748;2023-08-17T08:29:16;7.68;;;3.60;;
72557;SDS011;60583;50.094;8.748;2023-08-17T08:31:41;7.32;;;4.43;;
72557;SDS011;60583;50.094;8.748;2023-08-17T08:34:06;11.60;;;7.78;;
72557;SDS011;60583;50.094;8.748;2023-08-17T08:36:32;13.23;;;7.95;;
72557;SDS011;60583;50.094;8.748;2023-08-17T08:38:57;7.47;;;4.70;;
72557;SDS011;60583;50.094;8.748;2023-08-17T08:41:22;7.10;;;3.70;;
72557;SDS011;60583;50.094;8.748;2023-08-17T08:43:51;6.50;;;3.95;;
72557;SDS011;60583;50.094;8.748;2023-08-17T08:46:16;8.23;;;3.75;;
72557;SDS011;60583;50.094;8.748;2023-08-17T08:48:43;7.60;;;3.75;;
72557;SDS011;60583;50.094;8.748;2023-08-17T08:51:10;5.88;;;3.40;;
72557;SDS011;60583;50.094;8.748;2023-08-17T08:53:44;7.07;;;3.97;;
72557;SDS011;60583;50.094;8.748;2023-08-17T08:56:13;6.38;;;3.22;;
72557;SDS011;60583;50.094;8.748;2023-08-17T08:58:44;6.68;;;3.30;;
72557;SDS011;60583;50.094;8.748;2023-08-17T09:01:11;4.85;;;3.28;;
72557;SDS011;60583;50.094;8.748;2023-08-17T09:03:38;5.88;;;3.97;;
72557;SDS011;60583;50.094;8.748;2023-08-17T09:06:04;5.07;;;3.22;;
72557;SDS011;60583;50.094;8.748;2023-08-17T09:08:30;6.13;;;3.97;;
72557;SDS011;60583;50.094;8.748;2023-08-17T09:10:56;5.15;;;3.75;;
72557;SDS011;60583;50.094;8.748;2023-08-17T09:13:21;5.13;;;3.28;;
72557;SDS011;60583;50.094;8.748;2023-08-17T09:15:47;5.93;;;3.80;;
72557;SDS011;60583;50.094;8.748;2023-08-17T09:18:12;4.78;;;2.70;;
72557;SDS011;60583;50.094;8.748;2023-08-17T09:20:38;6.22;;;3.10;;
72557;SDS011;60583;50.094;8.748;2023-08-17T09:23:09;5.75;;;2.92;;
72557;SDS011;60583;50.094;8.748;2023-08-17T09:25:38;4.15;;;2.90;;
72557;SDS011;60583;50.094;8.748;2023-08-17T09:28:11;5.55;;;2.70;;
72557;SDS011;60583;50.094;8.748;2023-08-17T09:31:01;5.10;;;2.55;;
72557;SDS011;60583;50.094;8.748;2023-08-17T09:33:31;4.70;;;2.65;;
72557;SDS011;60583;50.094;8.748;2023-08-17T09:35:58;5.03;;;2.35;;
72557;SDS011;60583;50.094;8.748;2023-08-17T09:38:24;4.28;;;2.38;;
72557;SDS011;60583;50.094;8.748;2023-08-17T09:40:50;3.95;;;2.80;;
72557;SDS011;60583;50.094;8.748;2023-08-17T09:43:17;4.43;;;2.22;;
72557;SDS011;60583;50.094;8.748;2023-08-17T09:45:43;6.13;;;2.55;;
72557;SDS011;60583;50.094;8.748;2023-08-17T09:48:13;4.10;;;2.20;;
72557;SDS011;60583;50.094;8.748;2023-08-17T09:50:43;5.07;;;2.30;;
72557;SDS011;60583;50.094;8.748;2023-08-17T09:53:18;5.68;;;2.58;;
72557;SDS011;60583;50.094;8.748;2023-08-17T09:55:44;5.00;;;2.50;;
72557;SDS011;60583;50.094;8.748;2023-08-17T09:58:10;4.43;;;2.60;;
72557;SDS011;60583;50.094;8.748;2023-08-17T10:00:51;4.30;;;2.03;;
72557;SDS011;60583;50.094;8.748;2023-08-17T10:03:17;4.00;;;2.17;;
72557;SDS011;60583;50.094;8.748;2023-08-17T10:05:44;4.07;;;2.08;;
72557;SDS011;60583;50.094;8.748;2023-08-17T10:08:19;4.13;;;2.03;;
72557;SDS011;60583;50.094;8.748;2023-08-17T10:10:46;4.45;;;2.22;;
72557;SDS011;60583;50.094;8.748;2023-08-17T10:13:12;4.85;;;2.65;;
72557;SDS011;60583;50.094;8.748;2023-08-17T10:15:43;3.50;;;2.08;;
72557;SDS011;60583;50.094;8.748;2023-08-17T10:18:17;5.10;;;2.60;;
72557;SDS011;60583;50.094;8.748;2023-08-17T10:20:54;13.75;;;12.32;;
72557;SDS011;60583;50.094;8.748;2023-08-17T10:23:27;10.02;;;8.55;;
72557;SDS011;60583;50.094;8.748;2023-08-17T10:25:53;4.28;;;2.60;;
72557;SDS011;60583;50.094;8.748;2023-08-17T10:28:19;4.10;;;2.67;;
72557;SDS011;60583;50.094;8.748;2023-08-17T10:30:46;4.18;;;2.20;;
72557;SDS011;60583;50.094;8.748;2023-08-17T10:33:13;5.75;;;2.50;;
72557;SDS011;60583;50.094;8.748;2023-08-17T10:35:39;4.57;;;2.35;;
72557;SDS011;60583;50.094;8.748;2023-08-17T10:38:05;3.55;;;1.67;;
72557;SDS011;60583;50.094;8.748;2023-08-17T10:40:39;4.45;;;2.40;;
72557;SDS011;60583;50.094;8.748;2023-08-17T10:43:06;3.60;;;2.35;;
72557;SDS011;60583;50.094;8.748;2023-08-17T10:45:33;3.78;;;2.83;;
72557;SDS011;60583;50.094;8.748;2023-08-17T10:50:32;3.80;;;2.55;;
72557;SDS011;60583;50.094;8.748;2023-08-17T10:52:58;4.43;;;2.58;;
72557;SDS011;60583;50.094;8.748;2023-08-17T10:55:44;4.82;;;2.53;;
72557;SDS011;60583;50.094;8.748;2023-08-17T10:58:10;3.47;;;2.15;;
72557;SDS011;60583;50.094;8.748;2023-08-17T11:00:37;4.43;;;2.30;;
72557;SDS011;60583;50.094;8.748;2023-08-17T11:05:36;4.18;;;2.30;;
72557;SDS011;60583;50.094;8.748;2023-08-17T11:08:04;4.53;;;2.67;;
72557;SDS011;60583;50.094;8.748;2023-08-17T11:10:31;4.18;;;2.40;;
72557;SDS011;60583;50.094;8.748;2023-08-17T11:12:57;4.00;;;2.50;;
72557;SDS011;60583;50.094;8.748;2023-08-17T11:18:07;4.32;;;2.28;;
72557;SDS011;60583;50.094;8.748;2023-08-17T11:20:34;3.85;;;2.60;;
72557;SDS011;60583;50.094;8.748;2023-08-17T11:23:00;3.78;;;2.53;;
72557;SDS011;60583;50.094;8.748;2023-08-17T11:25:26;3.88;;;2.50;;
72557;SDS011;60583;50.094;8.748;2023-08-17T11:27:52;4.20;;;2.90;;
72557;SDS011;60583;50.094;8.748;2023-08-17T11:30:20;4.63;;;2.50;;
72557;SDS011;60583;50.094;8.748;2023-08-17T11:32:45;3.58;;;2.28;;
72557;SDS011;60583;50.094;8.748;2023-08-17T11:35:11;4.40;;;2.25;;
72557;SDS011;60583;50.094;8.748;2023-08-17T11:37:36;3.65;;;2.40;;
72557;SDS011;60583;50.094;8.748;2023-08-17T11:40:02;3.70;;;2.30;;
72557;SDS011;60583;50.094;8.748;2023-08-17T11:42:27;3.53;;;2.47;;
72557;SDS011;60583;50.094;8.748;2023-08-17T11:44:53;4.22;;;2.50;;
72557;SDS011;60583;50.094;8.748;2023-08-17T11:47:18;4.35;;;2.72;;
72557;SDS011;60583;50.094;8.748;2023-08-17T11:49:47;3.85;;;2.30;;
72557;SDS011;60583;50.094;8.748;2023-08-17T11:52:13;3.92;;;2.58;;
72557;SDS011;60583;50.094;8.748;2023-08-17T11:54:41;4.65;;;2.20;;
72557;SDS011;60583;50.094;8.748;2023-08-17T11:57:07;4.05;;;2.03;;
72557;SDS011;60583;50.094;8.748;2023-08-17T11:59:32;3.75;;;2.50;;
72557;SDS011;60583;50.094;8.748;2023-08-17T12:01:58;4.22;;;2.20;;
72557;SDS011;60583;50.094;8.748;2023-08-17T12:04:25;3.65;;;2.58;;
72557;SDS011;60583;50.094;8.748;2023-08-17T12:06:51;3.97;;;2.08;;
72557;SDS011;60583;50.094;8.748;2023-08-17T12:09:17;4.13;;;2.10;;
72557;SDS011;60583;50.094;8.748;2023-08-17T12:11:46;4.15;;;2.50;;
72557;SDS011;60583;50.094;8.748;2023-08-17T12:14:12;4.22;;;2.38;;
72557;SDS011;60583;50.094;8.748;2023-08-17T12:16:47;4.10;;;2.47;;
72557;SDS011;60583;50.094;8.748;2023-08-17T12:19:16;3.75;;;2.20;;
72557;SDS011;60583;50.094;8.748;2023-08-17T12:21:45;4.35;;;2.50;;
72557;SDS011;60583;50.094;8.748;2023-08-17T12:24:10;4.10;;;2.13;;
72557;SDS011;60583;50.094;8.748;2023-08-17T12:26:46;4.20;;;2.08;;
72557;SDS011;60583;50.094;8.748;2023-08-17T12:29:12;3.95;;;2.28;;
72557;SDS011;60583;50.094;8.748;2023-08-17T12:31:38;3.65;;;2.10;;
72557;SDS011;60583;50.094;8.748;2023-08-17T12:34:04;3.30;;;1.80;;
72557;SDS011;60583;50.094;8.748;2023-08-17T12:36:32;4.20;;;2.30;;
72557;SDS011;60583;50.094;8.748;2023-08-17T12:38:58;4.60;;;2.25;;
72557;SDS011;60583;50.094;8.748;2023-08-17T12:41:23;3.70;;;2.00;;
72557;SDS011;60583;50.094;8.748;2023-08-17T12:43:49;3.75;;;2.00;;
72557;SDS011;60583;50.094;8.748;2023-08-17T12:46:14;3.70;;;1.88;;
72557;SDS011;60583;50.094;8.748;2023-08-17T12:48:40;4.13;;;2.22;;
72557;SDS011;60583;50.094;8.748;2023-08-17T12:51:05;4.50;;;2.00;;
72557;SDS011;60583;50.094;8.748;2023-08-17T12:53:31;3.70;;;2.28;;
72557;SDS011;60583;50.094;8.748;2023-08-17T12:55:57;3.75;;;2.22;;
72557;SDS011;60583;50.094;8.748;2023-08-17T12:58:23;3.92;;;2.20;;
72557;SDS011;60583;50.094;8.748;2023-08-17T13:00:49;3.97;;;2.50;;
72557;SDS011;60583;50.094;8.748;2023-08-17T13:03:19;4.15;;;2.40;;
72557;SDS011;60583;50.094;8.748;2023-08-17T13:05:45;5.05;;;2.65;;
72557;SDS011;60583;50.094;8.748;2023-08-17T13:08:10;3.50;;;2.47;;
72557;SDS011;60583;50.094;8.748;2023-08-17T13:10:36;3.85;;;2.28;;
72557;SDS011;60583;50.094;8.748;2023-08-17T13:13:02;4.95;;;2.42;;
72557;SDS011;60583;50.094;8.748;2023-08-17T13:15:27;4.07;;;2.30;;
72557;SDS011;60583;50.094;8.748;2023-08-17T13:17:54;3.53;;;2.40;;
72557;SDS011;60583;50.094;8.748;2023-08-17T13:20:19;3.53;;;2.22;;
72557;SDS011;60583;50.094;8.748;2023-08-17T13:22:44;4.68;;;2.60;;
72557;SDS011;60583;50.094;8.748;2023-08-17T13:25:10;4.47;;;2.30;;
72557;SDS011;60583;50.094;8.748;2023-08-17T13:27:35;4.95;;;2.40;;
72557;SDS011;60583;50.094;8.748;2023-08-17T13:30:01;4.47;;;2.17;;
72557;SDS011;60583;50.094;8.748;2023-08-17T13:32:26;4.22;;;2.45;;
72557;SDS011;60583;50.094;8.748;2023-08-17T13:34:52;4.82;;;2.50;;
72557;SDS011;60583;50.094;8.748;2023-08-17T13:37:17;5.57;;;2.40;;
72557;SDS011;60583;50.094;8.748;2023-08-17T13:39:44;4.90;;;2.50;;
72557;SDS011;60583;50.094;8.748;2023-08-17T13:42:09;3.75;;;2.53;;
72557;SDS011;60583;50.094;8.748;2023-08-17T13:44:35;5.32;;;2.30;;
72557;SDS011;60583;50.094;8.748;2023-08-17T13:47:00;5.68;;;2.70;;
72557;SDS011;60583;50.094;8.748;2023-08-17T13:49:26;5.93;;;2.92;;
72557;SDS011;60583;50.094;8.748;2023-08-17T13:51:53;4.85;;;2.50;;
72557;SDS011;60583;50.094;8.748;2023-08-17T13:54:18;3.97;;;2.40;;
72557;SDS011;60583;50.094;8.748;2023-08-17T13:56:44;3.85;;;2.40;;
72557;SDS011;60583;50.094;8.748;2023-08-17T13:59:09;6.00;;;2.70;;
72557;SDS011;60583;50.094;8.748;2023-08-17T14:01:35;4.55;;;2.75;;
72557;SDS011;60583;50.094;8.748;2023-08-17T14:04:00;4.53;;;2.70;;
72557;SDS011;60583;50.094;8.748;2023-08-17T14:06:28;6.25;;;4.20;;
72557;SDS011;60583;50.094;8.748;2023-08-17T14:08:53;5.57;;;3.47;;
72557;SDS011;60583;50.094;8.748;2023-08-17T14:11:19;4.25;;;3.28;;
72557;SDS011;60583;50.094;8.748;2023-08-17T14:13:44;4.55;;;2.80;;
72557;SDS011;60583;50.094;8.748;2023-08-17T14:16:10;4.05;;;2.90;;
72557;SDS011;60583;50.094;8.748;2023-08-17T14:18:35;4.63;;;2.80;;
72557;SDS011;60583;50.094;8.748;2023-08-17T14:21:00;4.68;;;2.72;;
72557;SDS011;60583;50.094;8.748;2023-08-17T14:23:26;4.70;;;2.95;;
72557;SDS011;60583;50.094;8.748;2023-08-17T14:25:51;3.83;;;2.83;;
72557;SDS011;60583;50.094;8.748;2023-08-17T14:28:17;5.13;;;2.65;;
72557;SDS011;60583;50.094;8.748;2023-08-17T14:30:43;4.50;;;2.90;;
72557;SDS011;60583;50.094;8.748;2023-08-17T14:33:08;5.68;;;2.78;;
72557;SDS011;60583;50.094;8.748;2023-08-17T14:35:33;3.92;;;2.55;;
72557;SDS011;60583;50.094;8.748;2023-08-17T14:37:59;3.90;;;2.50;;
72557;SDS011;60583;50.094;8.748;2023-08-17T14:40:26;3.95;;;2.63;;
72557;SDS011;60583;50.094;8.748;2023-08-17T14:42:52;4.32;;;2.80;;
72557;SDS011;60583;50.094;8.748;2023-08-17T14:45:17;4.03;;;2.90;;
72557;SDS011;60583;50.094;8.748;2023-08-17T14:47:42;3.70;;;2.53;;
72557;SDS011;60583;50.094;8.748;2023-08-17T14:50:08;5.05;;;3.78;;